createdAt,value
2023-03-29T00:02:59.399Z,99360.22
2023-03-29T00:06:03.954Z,99364.81
2023-03-29T00:09:05.933Z,99368.13
2023-03-29T00:12:13.731Z,99351.78
2023-03-29T00:15:20.598Z,99363.56
2023-03-29T00:18:23.174Z,99382.56
2023-03-29T00:21:25.104Z,99383.72
2023-03-29T00:27:47.888Z,99386.06
2023-03-29T00:30:50.912Z,99411.31
2023-03-29T00:33:55.799Z,99398.22
2023-03-29T00:36:59.082Z,99368.25
2023-03-29T00:40:00.738Z,99369.81
2023-03-29T00:43:16.121Z,99367.75
2023-03-29T00:46:23.453Z,99368.81
2023-03-29T00:49:26.282Z,99366.88
2023-03-29T00:52:32.264Z,99373.91
2023-03-29T00:55:47.422Z,99400.47
2023-03-29T00:59:00.115Z,99419.25
2023-03-29T01:02:05.683Z,99462.59
2023-03-29T01:05:31.646Z,99442.75
2023-03-29T01:08:44.658Z,99446.72
2023-03-29T01:11:56.141Z,99435.72
2023-03-29T01:15:16.553Z,99418.88
2023-03-29T01:18:23.066Z,99415.91
2023-03-29T01:21:51.509Z,99397.56
2023-03-29T01:25:40.528Z,99398.41
2023-03-29T01:28:50.586Z,99381.91
2023-03-29T01:31:58.161Z,99380.94
2023-03-29T01:35:10.348Z,99365.44
2023-03-29T01:38:28.117Z,99358.66
2023-03-29T01:41:43.030Z,99352.59
2023-03-29T01:45:03.368Z,99346.13
2023-03-29T01:48:24.256Z,99336.91
2023-03-29T01:51:34.447Z,99337.25
2023-03-29T01:54:41.553Z,99327.41
2023-03-29T01:57:46.040Z,99319.91
2023-03-29T02:00:49.215Z,99321.38
2023-03-29T02:04:03.103Z,99301.38
2023-03-29T02:07:10.624Z,99308.09
2023-03-29T02:10:18.976Z,99297.25
2023-03-29T02:13:21.654Z,99295.22
2023-03-29T02:16:24.190Z,99273.13
2023-03-29T02:19:30.365Z,99281.66
2023-03-29T02:22:41.174Z,99282.09
2023-03-29T02:25:45.670Z,99276.41
2023-03-29T02:28:48.004Z,99270.88
2023-03-29T02:35:54.564Z,99276.50
2023-03-29T02:38:59.959Z,99274.25
2023-03-29T02:42:05.692Z,99273.94
2023-03-29T02:45:14.549Z,99259.53
2023-03-29T02:48:19.975Z,99264.63
2023-03-29T02:51:26.352Z,99270.78
2023-03-29T02:54:31.667Z,99264.16
2023-03-29T02:57:39.429Z,99269.53
2023-03-29T03:00:46.507Z,99273.38
2023-03-29T03:03:50.672Z,99268.13
2023-03-29T03:06:52.872Z,99276.88
2023-03-29T03:09:54.458Z,99267.03
2023-03-29T03:12:56.334Z,99264.69
2023-03-29T03:16:05.731Z,99275.97
2023-03-29T03:19:07.350Z,99275.66
2023-03-29T03:22:09.980Z,99292.78
2023-03-29T03:25:13.977Z,99292.97
2023-03-29T03:28:16.326Z,99278.34
2023-03-29T03:31:19.661Z,99279.28
2023-03-29T03:34:53.540Z,99286.59
2023-03-29T03:38:00.969Z,99293.63
2023-03-29T03:41:02.916Z,99281.06
2023-03-29T03:44:11.847Z,99265.94
2023-03-29T03:47:14.573Z,99273.88
2023-03-29T03:50:17.717Z,99272.00
2023-03-29T03:53:20.531Z,99270.38
2023-03-29T03:56:57.434Z,99276.91
2023-03-29T04:00:24.254Z,99264.19
2023-03-29T04:03:47.344Z,99283.44
2023-03-29T04:06:51.314Z,99270.72
2023-03-29T04:09:58.091Z,99284.69
2023-03-29T04:13:22.476Z,99288.00
2023-03-29T04:16:44.936Z,99279.94
2023-03-29T04:20:15.529Z,99275.81
2023-03-29T04:23:23.480Z,99266.59
2023-03-29T04:26:25.914Z,99275.47
2023-03-29T04:29:36.154Z,99272.47
2023-03-29T04:32:50.030Z,99275.59
2023-03-29T04:35:53.463Z,99274.63
2023-03-29T04:38:56.267Z,99273.66
2023-03-29T04:42:07.490Z,99269.00
2023-03-29T04:45:10.002Z,99270.09
2023-03-29T04:48:34.061Z,99277.38
2023-03-29T04:51:38.423Z,99262.28
2023-03-29T04:54:43.412Z,99254.38
2023-03-29T04:57:59.597Z,99244.03
2023-03-29T05:01:10.525Z,99252.66
2023-03-29T05:04:18.394Z,99247.56
2023-03-29T05:07:46.911Z,99259.03
2023-03-29T05:10:51.973Z,99259.56
2023-03-29T05:14:02.772Z,99259.91
2023-03-29T05:17:09.517Z,99272.91
2023-03-29T05:20:12.761Z,99265.53
2023-03-29T05:23:42.197Z,99269.59
2023-03-29T05:27:22.988Z,99257.53
2023-03-29T05:30:44.565Z,99260.06
2023-03-29T05:34:02.594Z,99247.47
2023-03-29T05:37:05.697Z,99253.53
2023-03-29T05:40:33.937Z,99250.06
2023-03-29T05:43:53.864Z,99254.16
2023-03-29T05:47:00.351Z,99255.88
2023-03-29T05:50:02.173Z,99262.25
2023-03-29T05:53:17.609Z,99258.56
2023-03-29T05:56:22.570Z,99258.66
2023-03-29T05:59:28.230Z,99255.63
2023-03-29T06:02:30.674Z,99251.81
2023-03-29T06:05:35.096Z,99256.59
2023-03-29T06:08:37.690Z,99265.81
2023-03-29T06:12:01.766Z,99255.97
2023-03-29T06:15:13.275Z,99242.78
2023-03-29T06:18:27.807Z,99256.69
2023-03-29T06:21:30.340Z,99246.56
2023-03-29T06:24:32.260Z,99254.03
2023-03-29T06:27:39.334Z,99259.78
2023-03-29T06:30:46.034Z,99254.06
2023-03-29T06:33:49.443Z,99265.63
2023-03-29T06:37:12.959Z,99248.69
2023-03-29T06:40:37.649Z,99260.41
2023-03-29T06:43:39.778Z,99260.25
2023-03-29T06:46:43.230Z,99266.31
2023-03-29T06:49:51.956Z,99260.41
2023-03-29T06:53:14.098Z,99257.72
2023-03-29T06:56:26.238Z,99260.41
2023-03-29T06:59:48.320Z,99265.63
2023-03-29T07:03:41.489Z,99265.56
2023-03-29T07:06:48.348Z,99267.28
2023-03-29T07:10:07.367Z,99266.56
2023-03-29T07:13:27.720Z,99276.69
2023-03-29T07:16:39.130Z,99292.88
2023-03-29T07:20:08.201Z,99288.94
2023-03-29T07:23:20.245Z,99292.22
2023-03-29T07:26:28.837Z,99303.44
2023-03-29T07:29:33.120Z,99273.91
2023-03-29T07:32:45.484Z,99290.97
2023-03-29T07:36:11.106Z,99295.38
2023-03-29T07:39:13.641Z,99284.19
2023-03-29T07:42:19.282Z,99296.03
2023-03-29T07:45:26.832Z,99304.91
2023-03-29T07:48:36.424Z,99300.09
2023-03-29T07:51:42.983Z,99314.91
2023-03-29T07:54:51.399Z,99304.16
2023-03-29T07:58:14.501Z,99312.53
2023-03-29T08:01:19.808Z,99304.34
2023-03-29T08:04:43.444Z,99295.38
2023-03-29T08:07:49.072Z,99303.59
2023-03-29T08:11:10.185Z,99287.97
2023-03-29T08:14:34.763Z,99296.66
2023-03-29T08:17:42.580Z,99285.75
2023-03-29T08:20:44.419Z,99293.34
2023-03-29T08:23:48.338Z,99288.31
2023-03-29T08:26:54.474Z,99289.97
2023-03-29T08:29:56.127Z,99280.97
2023-03-29T08:33:02.112Z,99285.44
2023-03-29T08:36:10.516Z,99296.38
2023-03-29T08:39:20.977Z,99300.22
2023-03-29T08:43:14.763Z,99291.53
2023-03-29T08:47:00.039Z,99294.13
2023-03-29T08:50:14.670Z,99282.03
2023-03-29T08:53:27.708Z,99277.72
2023-03-29T08:56:54.288Z,99277.63
2023-03-29T09:00:10.526Z,99272.13
2023-03-29T09:03:40.474Z,99253.47
2023-03-29T09:06:49.114Z,99260.53
2023-03-29T09:10:00.541Z,99251.16
2023-03-29T09:13:28.786Z,99260.66
2023-03-29T09:16:49.448Z,99275.78
2023-03-29T09:20:11.810Z,99267.31
2023-03-29T09:23:39.544Z,99261.50
2023-03-29T09:27:42.704Z,99269.41
2023-03-29T09:31:12.288Z,99259.16
2023-03-29T09:34:31.419Z,99260.84
2023-03-29T09:37:43.966Z,99268.09
2023-03-29T09:40:51.739Z,99268.53
2023-03-29T09:44:00.620Z,99266.06
2023-03-29T09:47:21.299Z,99272.94
2023-03-29T09:50:31.476Z,99252.22
2023-03-29T09:53:36.160Z,99263.16
2023-03-29T09:57:17.841Z,99255.25
2023-03-29T10:00:23.554Z,99253.97
2023-03-29T10:03:36.006Z,99245.84
2023-03-29T10:06:52.510Z,99257.13
2023-03-29T10:09:56.140Z,99240.13
2023-03-29T10:13:23.255Z,99244.84
2023-03-29T10:16:38.065Z,99234.53
2023-03-29T10:19:51.260Z,99217.97
2023-03-29T10:22:58.452Z,99221.16
2023-03-29T10:26:04.274Z,99216.78
2023-03-29T10:29:08.293Z,99215.91
2023-03-29T10:32:23.257Z,99223.19
2023-03-29T10:35:33.369Z,99219.34
2023-03-29T10:45:21.619Z,99231.53
2023-03-29T10:48:32.272Z,99235.75
2023-03-29T10:51:36.659Z,99235.06
2023-03-29T10:54:40.342Z,99220.47
2023-03-29T10:57:57.382Z,99217.50
2023-03-29T11:01:02.786Z,99218.50
2023-03-29T11:04:38.166Z,99227.00
2023-03-29T11:12:15.935Z,99218.81
2023-03-29T11:15:39.986Z,99212.41
2023-03-29T11:19:29.893Z,99214.69
2023-03-29T11:22:55.745Z,99222.03
2023-03-29T11:26:22.563Z,99228.16
2023-03-29T11:29:57.015Z,99238.88
2023-03-29T11:33:29.739Z,99228.53
2023-03-29T11:36:50.533Z,99233.44
2023-03-29T11:40:07.223Z,99212.75
2023-03-29T11:43:11.551Z,99225.13
2023-03-29T11:46:20.248Z,99232.72
2023-03-29T11:49:51.754Z,99224.81
2023-03-29T11:53:13.868Z,99219.47
2023-03-29T12:00:22.008Z,99215.53
2023-03-29T12:04:04.194Z,99206.59
2023-03-29T12:07:23.095Z,99184.47
2023-03-29T12:10:34.426Z,99180.75
2023-03-29T12:13:55.261Z,99189.56
2023-03-29T12:17:08.455Z,99181.75
2023-03-29T12:20:32.389Z,99179.63
2023-03-29T12:23:36.689Z,99166.78
2023-03-29T12:27:19.847Z,99178.38
2023-03-29T12:30:59.847Z,99182.69
2023-03-29T12:34:38.652Z,99178.66
2023-03-29T12:38:20.773Z,99183.88
2023-03-29T12:41:44.830Z,99187.47
2023-03-29T12:45:05.740Z,99186.97
2023-03-29T12:51:37.038Z,99189.16
2023-03-29T12:54:39.021Z,99188.16
2023-03-29T12:58:18.108Z,99185.72
2023-03-29T13:01:35.081Z,99182.66
2023-03-29T13:04:42.923Z,99197.00
2023-03-29T13:07:49.873Z,99177.63
2023-03-29T13:10:55.799Z,99177.06
2023-03-29T13:14:26.335Z,99162.44
2023-03-29T13:18:00.035Z,99157.34
2023-03-29T13:21:14.233Z,99157.47
2023-03-29T13:24:40.460Z,99128.50
2023-03-29T13:28:07.377Z,99139.50
2023-03-29T13:31:27.767Z,99163.09
2023-03-29T13:34:59.916Z,99158.00
2023-03-29T13:38:31.853Z,99147.34
2023-03-29T13:41:46.070Z,99152.97
2023-03-29T13:44:51.577Z,99135.19
2023-03-29T13:48:30.730Z,99138.38
2023-03-29T13:51:34.052Z,99126.16
2023-03-29T13:54:43.164Z,99138.19
2023-03-29T13:58:05.674Z,99140.56
2023-03-29T14:01:43.084Z,99121.63
2023-03-29T14:04:51.025Z,99109.81
2023-03-29T14:07:57.592Z,99123.22
2023-03-29T14:11:06.566Z,99110.66
2023-03-29T14:17:27.280Z,99090.03
2023-03-29T14:20:32.760Z,99098.78
2023-03-29T14:23:37.558Z,99097.31
2023-03-29T14:26:46.123Z,99094.69
2023-03-29T14:30:28.355Z,99096.63
2023-03-29T14:33:38.123Z,99088.78
2023-03-29T14:36:40.883Z,99080.22
2023-03-29T14:39:42.818Z,99076.06
2023-03-29T14:42:48.667Z,99065.41
2023-03-29T14:45:50.749Z,99066.94
2023-03-29T14:48:56.494Z,99063.91
2023-03-29T14:51:58.994Z,99071.38
2023-03-29T14:55:13.036Z,99052.47
2023-03-29T15:01:53.825Z,99053.31
2023-03-29T15:04:57.968Z,99052.38
2023-03-29T15:08:01.745Z,99051.56
2023-03-29T15:11:21.819Z,99046.41
2023-03-29T15:14:27.007Z,99043.66
2023-03-29T15:17:49.516Z,99044.31
2023-03-29T15:20:56.321Z,99031.78
2023-03-29T15:23:59.726Z,99030.25
2023-03-29T15:27:13.450Z,99014.66
2023-03-29T15:30:18.197Z,99014.66
2023-03-29T15:33:26.185Z,99007.22
2023-03-29T15:36:28.101Z,99006.06
2023-03-29T15:39:30.409Z,99001.72
2023-03-29T15:42:32.327Z,99011.09
2023-03-29T15:45:34.193Z,99001.63
2023-03-29T15:48:38.794Z,99013.38
2023-03-29T15:51:40.685Z,99007.91
2023-03-29T15:54:43.779Z,99006.34
2023-03-29T15:57:48.787Z,99005.91
2023-03-29T16:00:56.720Z,99004.72
2023-03-29T16:04:00.419Z,98997.19
2023-03-29T16:07:02.257Z,99006.59
2023-03-29T16:10:04.093Z,99010.44
2023-03-29T16:13:06.380Z,99015.88
2023-03-29T16:16:18.985Z,99009.97
2023-03-29T16:19:22.017Z,99007.16
2023-03-29T16:22:23.607Z,99010.28
2023-03-29T16:25:25.351Z,99010.59
2023-03-29T16:28:29.969Z,99003.16
2023-03-29T16:31:33.049Z,99003.91
2023-03-29T16:34:38.276Z,98996.06
2023-03-29T16:37:39.892Z,98996.06
2023-03-29T16:40:45.137Z,98978.78
2023-03-29T16:43:46.742Z,99000.25
2023-03-29T16:46:48.385Z,99002.25
2023-03-29T16:49:53.505Z,98993.22
2023-03-29T16:52:55.237Z,99002.94
2023-03-29T16:55:57.504Z,98988.84
2023-03-29T17:02:22.852Z,98972.25
2023-03-29T17:05:25.321Z,98963.88
2023-03-29T17:08:26.858Z,98966.19
2023-03-29T17:11:29.047Z,98967.78
2023-03-29T17:14:30.915Z,98959.38
2023-03-29T17:17:39.022Z,98980.31
2023-03-29T17:20:41.423Z,98972.78
2023-03-29T17:23:43.002Z,98964.09
2023-03-29T17:26:45.984Z,98950.94
2023-03-29T17:29:48.731Z,98938.66
2023-03-29T17:32:52.223Z,98949.06
2023-03-29T17:35:53.973Z,98922.75
2023-03-29T17:38:57.732Z,98947.28
2023-03-29T17:41:59.727Z,98937.97
2023-03-29T17:45:03.856Z,98908.56
2023-03-29T17:48:12.574Z,98934.31
2023-03-29T17:51:14.136Z,98931.00
2023-03-29T17:54:24.665Z,98924.81
2023-03-29T17:57:26.439Z,98923.38
2023-03-29T18:00:28.232Z,98919.78
2023-03-29T18:03:55.469Z,98913.31
2023-03-29T18:07:03.275Z,98895.34
2023-03-29T18:10:09.982Z,98881.38
2023-03-29T18:13:13.929Z,98831.28
2023-03-29T18:16:15.846Z,98884.59
2023-03-29T18:19:19.726Z,98897.81
2023-03-29T18:22:21.663Z,98911.41
2023-03-29T18:25:28.442Z,98909.84
2023-03-29T18:28:31.208Z,98919.56
2023-03-29T18:31:33.082Z,98907.34
2023-03-29T18:34:34.822Z,98928.25
2023-03-29T18:40:53.501Z,98921.41
2023-03-29T18:44:06.946Z,98930.06
2023-03-29T18:47:08.652Z,98925.25
2023-03-29T18:50:12.349Z,98924.47
2023-03-29T18:53:14.465Z,98935.88
2023-03-29T18:56:16.250Z,98926.78
2023-03-29T18:59:18.041Z,98922.19
2023-03-29T19:02:20.793Z,98929.25
2023-03-29T19:05:22.526Z,98923.03
2023-03-29T19:08:26.266Z,98936.38
2023-03-29T19:11:43.680Z,98925.81
2023-03-29T19:14:48.714Z,98932.09
2023-03-29T19:17:52.781Z,98935.13
2023-03-29T19:20:54.669Z,98919.44
2023-03-29T19:23:56.407Z,98920.31
2023-03-29T19:26:58.605Z,98924.56
2023-03-29T19:30:00.565Z,98916.25
2023-03-29T19:36:23.853Z,98909.28
2023-03-29T19:39:27.337Z,98898.69
2023-03-29T19:42:28.842Z,98910.84
2023-03-29T19:45:30.711Z,98912.44
2023-03-29T19:48:33.790Z,98922.09
2023-03-29T19:51:38.368Z,98901.78
2023-03-29T19:54:44.190Z,98902.59
2023-03-29T19:57:54.913Z,98891.19
2023-03-29T20:00:59.456Z,98897.63
2023-03-29T20:04:04.706Z,98892.78
2023-03-29T20:07:06.750Z,98890.22
2023-03-29T20:10:11.400Z,98872.94
2023-03-29T20:13:14.582Z,98863.38
2023-03-29T20:16:19.287Z,98865.28
2023-03-29T20:19:41.177Z,98853.16
2023-03-29T20:22:47.987Z,98846.25
2023-03-29T20:25:49.655Z,98875.56
2023-03-29T20:28:53.582Z,98866.63
2023-03-29T20:31:55.146Z,98872.03
2023-03-29T20:34:56.739Z,98845.06
2023-03-29T20:38:10.492Z,98846.28
2023-03-29T20:41:12.152Z,98838.84
2023-03-29T20:44:17.119Z,98847.09
2023-03-29T20:47:19.277Z,98833.75
2023-03-29T20:50:20.906Z,98827.47
2023-03-29T20:53:22.400Z,98820.03
2023-03-29T20:56:26.106Z,98831.03
2023-03-29T20:59:35.940Z,98816.97
2023-03-29T21:02:38.982Z,98825.19
2023-03-29T21:05:40.803Z,98824.00
2023-03-29T21:08:54.305Z,98816.16
2023-03-29T21:11:56.016Z,98806.78
2023-03-29T21:15:02.343Z,98812.72
2023-03-29T21:18:04.573Z,98816.69
2023-03-29T21:21:12.634Z,98810.03
2023-03-29T21:24:18.798Z,98804.56
2023-03-29T21:27:23.107Z,98805.72
2023-03-29T21:30:24.837Z,98801.81
2023-03-29T21:33:26.376Z,98806.91
2023-03-29T21:36:29.856Z,98803.41
2023-03-29T21:43:19.969Z,98785.78
2023-03-29T21:46:27.547Z,98786.59
2023-03-29T21:49:31.475Z,98775.22
2023-03-29T21:52:39.121Z,98763.50
2023-03-29T21:55:40.698Z,98776.00
2023-03-29T21:58:42.407Z,98774.47
2023-03-29T22:01:44.058Z,98755.69
2023-03-29T22:04:48.188Z,98759.97
2023-03-29T22:07:52.926Z,98767.00
2023-03-29T22:10:56.727Z,98777.16
2023-03-29T22:13:58.360Z,98755.66
2023-03-29T22:16:59.954Z,98775.22
2023-03-29T22:20:12.653Z,98768.19
2023-03-29T22:23:21.606Z,98776.00
2023-03-29T22:26:27.534Z,98763.91
2023-03-29T22:29:31.537Z,98767.78
2023-03-29T22:32:36.997Z,98774.44
2023-03-29T22:35:46.058Z,98757.63
2023-03-29T22:38:48.292Z,98765.03
2023-03-29T22:41:56.215Z,98763.50
2023-03-29T22:44:57.774Z,98790.88
2023-03-29T22:47:59.770Z,98788.88
2023-03-29T22:51:03.546Z,98788.41
2023-03-29T22:54:05.314Z,98775.09
2023-03-29T22:57:09.252Z,98754.00
2023-03-29T23:00:17.574Z,98744.44
2023-03-29T23:03:19.999Z,98736.56
2023-03-29T23:06:31.852Z,98737.31
2023-03-29T23:09:34.007Z,98728.88
2023-03-29T23:12:38.355Z,98734.72
2023-03-29T23:15:47.249Z,98714.41
2023-03-29T23:18:51.887Z,98706.13
2023-03-29T23:21:53.391Z,98710.66
2023-03-29T23:24:54.977Z,98709.97
2023-03-29T23:27:57.387Z,98720.28
2023-03-29T23:31:06.527Z,98724.56
2023-03-29T23:34:09.154Z,98728.13
2023-03-29T23:37:10.696Z,98719.22
2023-03-29T23:40:17.345Z,98714.63
2023-03-29T23:43:18.881Z,98716.97
2023-03-29T23:46:23.430Z,98692.69
2023-03-29T23:49:25.074Z,98702.47
2023-03-29T23:52:27.204Z,98684.50
2023-03-29T23:55:34.675Z,98689.59
2023-03-29T23:58:37.948Z,98679.00
